sensor_id;sensor_type;location;lat;lon;timestamp;P1;durP1;ratioP1;P2;durP2;ratioP2
6109;SDS011;3085;49.444;11.054;2023-04-25T00:00:56;5.47;;;3.20;;
6109;SDS011;3085;49.444;11.054;2023-04-25T00:03:23;3.83;;;2.87;;
6109;SDS011;3085;49.444;11.054;2023-04-25T00:05:50;5.70;;;3.50;;
6109;SDS011;3085;49.444;11.054;2023-04-25T00:08:18;4.30;;;2.70;;
6109;SDS011;3085;49.444;11.054;2023-04-25T00:10:45;4.97;;;2.67;;
6109;SDS011;3085;49.444;11.054;2023-04-25T00:13:13;5.80;;;3.60;;
6109;SDS011;3085;49.444;11.054;2023-04-25T00:15:42;4.17;;;2.67;;
6109;SDS011;3085;49.444;11.054;2023-04-25T00:18:09;5.03;;;2.87;;
6109;SDS011;3085;49.444;11.054;2023-04-25T00:20:36;4.17;;;3.00;;
6109;SDS011;3085;49.444;11.054;2023-04-25T00:23:03;5.90;;;3.57;;
6109;SDS011;3085;49.444;11.054;2023-04-25T00:25:31;4.93;;;3.00;;
6109;SDS011;3085;49.444;11.054;2023-04-25T00:27:58;3.67;;;2.90;;
6109;SDS011;3085;49.444;11.054;2023-04-25T00:30:24;10.93;;;3.60;;
6109;SDS011;3085;49.444;11.054;2023-04-25T00:32:51;4.60;;;2.77;;
6109;SDS011;3085;49.444;11.054;2023-04-25T00:35:18;3.23;;;2.60;;
6109;SDS011;3085;49.444;11.054;2023-04-25T00:37:45;5.97;;;3.60;;
6109;SDS011;3085;49.444;11.054;2023-04-25T00:40:12;3.90;;;2.60;;
6109;SDS011;3085;49.444;11.054;2023-04-25T00:42:40;5.73;;;2.87;;
6109;SDS011;3085;49.444;11.054;2023-04-25T00:45:08;7.90;;;3.63;;
6109;SDS011;3085;49.444;11.054;2023-04-25T00:47:39;8.90;;;3.50;;
6109;SDS011;3085;49.444;11.054;2023-04-25T00:50:07;4.00;;;3.00;;
6109;SDS011;3085;49.444;11.054;2023-04-25T00:52:34;6.23;;;2.90;;
6109;SDS011;3085;49.444;11.054;2023-04-25T00:55:02;5.80;;;3.23;;
6109;SDS011;3085;49.444;11.054;2023-04-25T00:57:29;7.80;;;3.50;;
6109;SDS011;3085;49.444;11.054;2023-04-25T00:59:57;4.80;;;2.63;;
6109;SDS011;3085;49.444;11.054;2023-04-25T01:02:24;3.53;;;2.57;;
6109;SDS011;3085;49.444;11.054;2023-04-25T01:04:53;6.20;;;3.17;;
6109;SDS011;3085;49.444;11.054;2023-04-25T01:07:20;4.00;;;2.50;;
6109;SDS011;3085;49.444;11.054;2023-04-25T01:09:46;3.70;;;2.53;;
6109;SDS011;3085;49.444;11.054;2023-04-25T01:12:13;6.60;;;3.07;;
6109;SDS011;3085;49.444;11.054;2023-04-25T01:14:40;4.53;;;2.93;;
6109;SDS011;3085;49.444;11.054;2023-04-25T01:17:08;3.77;;;2.40;;
6109;SDS011;3085;49.444;11.054;2023-04-25T01:19:36;3.67;;;2.30;;
6109;SDS011;3085;49.444;11.054;2023-04-25T01:22:04;5.93;;;2.43;;
6109;SDS011;3085;49.444;11.054;2023-04-25T01:24:31;4.30;;;2.80;;
6109;SDS011;3085;49.444;11.054;2023-04-25T01:26:58;4.30;;;2.90;;
6109;SDS011;3085;49.444;11.054;2023-04-25T01:29:27;3.37;;;2.57;;
6109;SDS011;3085;49.444;11.054;2023-04-25T01:31:54;4.90;;;3.13;;
6109;SDS011;3085;49.444;11.054;2023-04-25T01:34:23;4.10;;;2.57;;
6109;SDS011;3085;49.444;11.054;2023-04-25T01:36:50;3.30;;;2.93;;
6109;SDS011;3085;49.444;11.054;2023-04-25T01:39:18;4.00;;;2.70;;
6109;SDS011;3085;49.444;11.054;2023-04-25T01:41:46;18.60;;;2.93;;
6109;SDS011;3085;49.444;11.054;2023-04-25T01:44:13;7.20;;;2.53;;
6109;SDS011;3085;49.444;11.054;2023-04-25T01:46:41;4.43;;;2.80;;
6109;SDS011;3085;49.444;11.054;2023-04-25T01:49:08;6.33;;;2.93;;
6109;SDS011;3085;49.444;11.054;2023-04-25T01:51:35;7.43;;;2.80;;
6109;SDS011;3085;49.444;11.054;2023-04-25T01:54:01;6.00;;;2.70;;
6109;SDS011;3085;49.444;11.054;2023-04-25T01:56:31;3.43;;;2.60;;
6109;SDS011;3085;49.444;11.054;2023-04-25T01:58:58;6.33;;;4.30;;
6109;SDS011;3085;49.444;11.054;2023-04-25T02:01:25;6.23;;;3.30;;
6109;SDS011;3085;49.444;11.054;2023-04-25T02:03:52;6.27;;;2.80;;
6109;SDS011;3085;49.444;11.054;2023-04-25T02:06:19;4.50;;;2.53;;
6109;SDS011;3085;49.444;11.054;2023-04-25T02:08:46;3.77;;;2.50;;
6109;SDS011;3085;49.444;11.054;2023-04-25T02:11:13;3.23;;;2.57;;
6109;SDS011;3085;49.444;11.054;2023-04-25T02:13:41;4.00;;;2.93;;
6109;SDS011;3085;49.444;11.054;2023-04-25T02:16:08;5.23;;;3.60;;
6109;SDS011;3085;49.444;11.054;2023-04-25T02:18:34;5.43;;;3.80;;
6109;SDS011;3085;49.444;11.054;2023-04-25T02:21:02;2.83;;;2.10;;
6109;SDS011;3085;49.444;11.054;2023-04-25T02:23:29;4.13;;;2.90;;
6109;SDS011;3085;49.444;11.054;2023-04-25T02:25:56;3.73;;;2.83;;
6109;SDS011;3085;49.444;11.054;2023-04-25T02:28:23;4.47;;;2.70;;
6109;SDS011;3085;49.444;11.054;2023-04-25T02:30:53;5.00;;;3.10;;
6109;SDS011;3085;49.444;11.054;2023-04-25T02:33:19;3.80;;;2.90;;
6109;SDS011;3085;49.444;11.054;2023-04-25T02:35:47;4.90;;;3.10;;
6109;SDS011;3085;49.444;11.054;2023-04-25T02:38:13;5.80;;;3.40;;
6109;SDS011;3085;49.444;11.054;2023-04-25T02:40:40;6.03;;;3.23;;
6109;SDS011;3085;49.444;11.054;2023-04-25T02:43:07;3.50;;;2.83;;
6109;SDS011;3085;49.444;11.054;2023-04-25T02:45:34;4.23;;;2.90;;
6109;SDS011;3085;49.444;11.054;2023-04-25T02:48:02;5.07;;;3.10;;
6109;SDS011;3085;49.444;11.054;2023-04-25T02:50:29;3.83;;;3.03;;
6109;SDS011;3085;49.444;11.054;2023-04-25T02:52:56;4.10;;;2.90;;
6109;SDS011;3085;49.444;11.054;2023-04-25T02:55:23;6.37;;;2.97;;
6109;SDS011;3085;49.444;11.054;2023-04-25T02:57:50;5.60;;;3.63;;
6109;SDS011;3085;49.444;11.054;2023-04-25T03:00:16;5.53;;;3.30;;
6109;SDS011;3085;49.444;11.054;2023-04-25T03:02:43;5.30;;;3.20;;
6109;SDS011;3085;49.444;11.054;2023-04-25T03:05:11;10.80;;;4.37;;
6109;SDS011;3085;49.444;11.054;2023-04-25T03:07:38;12.60;;;4.10;;
6109;SDS011;3085;49.444;11.054;2023-04-25T03:10:05;5.73;;;3.53;;
6109;SDS011;3085;49.444;11.054;2023-04-25T03:12:33;5.57;;;3.73;;
6109;SDS011;3085;49.444;11.054;2023-04-25T03:15:00;7.00;;;3.90;;
6109;SDS011;3085;49.444;11.054;2023-04-25T03:17:26;8.90;;;3.67;;
6109;SDS011;3085;49.444;11.054;2023-04-25T03:19:53;7.77;;;3.73;;
6109;SDS011;3085;49.444;11.054;2023-04-25T03:22:22;8.43;;;4.53;;
6109;SDS011;3085;49.444;11.054;2023-04-25T03:24:49;6.30;;;3.70;;
6109;SDS011;3085;49.444;11.054;2023-04-25T03:27:16;7.47;;;3.70;;
6109;SDS011;3085;49.444;11.054;2023-04-25T03:29:43;7.70;;;3.97;;
6109;SDS011;3085;49.444;11.054;2023-04-25T03:32:10;16.23;;;4.13;;
6109;SDS011;3085;49.444;11.054;2023-04-25T03:34:36;5.20;;;3.47;;
6109;SDS011;3085;49.444;11.054;2023-04-25T03:37:03;9.23;;;3.30;;
6109;SDS011;3085;49.444;11.054;2023-04-25T03:39:31;7.23;;;4.33;;
6109;SDS011;3085;49.444;11.054;2023-04-25T03:41:58;4.70;;;3.43;;
6109;SDS011;3085;49.444;11.054;2023-04-25T03:44:26;7.53;;;4.30;;
6109;SDS011;3085;49.444;11.054;2023-04-25T03:46:52;5.57;;;3.87;;
6109;SDS011;3085;49.444;11.054;2023-04-25T03:49:19;6.03;;;3.73;;
6109;SDS011;3085;49.444;11.054;2023-04-25T03:51:46;8.13;;;3.43;;
6109;SDS011;3085;49.444;11.054;2023-04-25T03:54:12;5.60;;;4.10;;
6109;SDS011;3085;49.444;11.054;2023-04-25T03:56:40;4.87;;;3.13;;
6109;SDS011;3085;49.444;11.054;2023-04-25T03:59:07;8.30;;;3.77;;
6109;SDS011;3085;49.444;11.054;2023-04-25T04:01:34;5.43;;;3.20;;
6109;SDS011;3085;49.444;11.054;2023-04-25T04:04:01;8.13;;;4.53;;
6109;SDS011;3085;49.444;11.054;2023-04-25T04:06:27;11.47;;;4.13;;
6109;SDS011;3085;49.444;11.054;2023-04-25T04:08:54;5.70;;;3.50;;
6109;SDS011;3085;49.444;11.054;2023-04-25T04:11:21;6.53;;;3.60;;
6109;SDS011;3085;49.444;11.054;2023-04-25T04:13:49;6.27;;;3.70;;
6109;SDS011;3085;49.444;11.054;2023-04-25T04:16:16;8.47;;;4.03;;
6109;SDS011;3085;49.444;11.054;2023-04-25T04:18:44;9.47;;;4.40;;
6109;SDS011;3085;49.444;11.054;2023-04-25T04:21:11;8.73;;;4.23;;
6109;SDS011;3085;49.444;11.054;2023-04-25T04:23:38;5.63;;;3.53;;
6109;SDS011;3085;49.444;11.054;2023-04-25T04:26:05;7.13;;;3.53;;
6109;SDS011;3085;49.444;11.054;2023-04-25T04:28:33;9.27;;;4.10;;
6109;SDS011;3085;49.444;11.054;2023-04-25T04:31:02;5.93;;;3.77;;
6109;SDS011;3085;49.444;11.054;2023-04-25T04:33:29;6.50;;;4.03;;
6109;SDS011;3085;49.444;11.054;2023-04-25T04:35:56;5.40;;;3.03;;
6109;SDS011;3085;49.444;11.054;2023-04-25T04:38:24;5.23;;;4.00;;
6109;SDS011;3085;49.444;11.054;2023-04-25T04:40:51;12.40;;;4.63;;
6109;SDS011;3085;49.444;11.054;2023-04-25T04:43:18;6.97;;;3.53;;
6109;SDS011;3085;49.444;11.054;2023-04-25T04:45:45;7.60;;;4.80;;
6109;SDS011;3085;49.444;11.054;2023-04-25T04:48:14;12.40;;;5.30;;
6109;SDS011;3085;49.444;11.054;2023-04-25T04:50:42;13.23;;;5.10;;
6109;SDS011;3085;49.444;11.054;2023-04-25T04:53:10;8.50;;;4.40;;
6109;SDS011;3085;49.444;11.054;2023-04-25T04:55:37;7.40;;;5.13;;
6109;SDS011;3085;49.444;11.054;2023-04-25T04:58:06;8.83;;;5.57;;
6109;SDS011;3085;49.444;11.054;2023-04-25T05:00:32;8.47;;;4.20;;
6109;SDS011;3085;49.444;11.054;2023-04-25T05:02:59;10.87;;;4.60;;
6109;SDS011;3085;49.444;11.054;2023-04-25T05:05:31;9.53;;;4.10;;
6109;SDS011;3085;49.444;11.054;2023-04-25T05:08:06;7.63;;;4.80;;
6109;SDS011;3085;49.444;11.054;2023-04-25T05:10:33;6.97;;;4.37;;
6109;SDS011;3085;49.444;11.054;2023-04-25T05:13:00;9.80;;;4.50;;
6109;SDS011;3085;49.444;11.054;2023-04-25T05:15:27;7.40;;;4.37;;
6109;SDS011;3085;49.444;11.054;2023-04-25T05:17:54;7.90;;;4.67;;
6109;SDS011;3085;49.444;11.054;2023-04-25T05:20:21;12.60;;;4.90;;
6109;SDS011;3085;49.444;11.054;2023-04-25T05:22:49;6.80;;;3.90;;
6109;SDS011;3085;49.444;11.054;2023-04-25T05:25:16;6.93;;;4.33;;
6109;SDS011;3085;49.444;11.054;2023-04-25T05:27:43;7.53;;;4.40;;
6109;SDS011;3085;49.444;11.054;2023-04-25T05:30:10;8.70;;;5.17;;
6109;SDS011;3085;49.444;11.054;2023-04-25T05:32:36;7.50;;;4.10;;
6109;SDS011;3085;49.444;11.054;2023-04-25T05:35:03;6.90;;;4.80;;
6109;SDS011;3085;49.444;11.054;2023-04-25T05:37:31;9.60;;;4.80;;
6109;SDS011;3085;49.444;11.054;2023-04-25T05:39:59;7.13;;;4.63;;
6109;SDS011;3085;49.444;11.054;2023-04-25T05:42:26;5.90;;;3.93;;
6109;SDS011;3085;49.444;11.054;2023-04-25T05:44:53;9.27;;;4.77;;
6109;SDS011;3085;49.444;11.054;2023-04-25T05:47:20;9.20;;;5.37;;
6109;SDS011;3085;49.444;11.054;2023-04-25T05:49:47;7.03;;;4.10;;
6109;SDS011;3085;49.444;11.054;2023-04-25T05:52:14;7.00;;;4.50;;
6109;SDS011;3085;49.444;11.054;2023-04-25T05:54:41;5.87;;;3.70;;
6109;SDS011;3085;49.444;11.054;2023-04-25T05:57:15;6.53;;;4.13;;
6109;SDS011;3085;49.444;11.054;2023-04-25T05:59:46;7.60;;;3.70;;
6109;SDS011;3085;49.444;11.054;2023-04-25T06:02:12;13.20;;;4.57;;
6109;SDS011;3085;49.444;11.054;2023-04-25T06:04:39;8.50;;;4.43;;
6109;SDS011;3085;49.444;11.054;2023-04-25T06:07:06;6.33;;;3.73;;
6109;SDS011;3085;49.444;11.054;2023-04-25T06:09:33;4.83;;;3.40;;
6109;SDS011;3085;49.444;11.054;2023-04-25T06:12:00;9.50;;;4.40;;
6109;SDS011;3085;49.444;11.054;2023-04-25T06:14:29;4.90;;;3.60;;
6109;SDS011;3085;49.444;11.054;2023-04-25T06:16:56;9.73;;;4.70;;
6109;SDS011;3085;49.444;11.054;2023-04-25T06:19:23;8.20;;;3.93;;
6109;SDS011;3085;49.444;11.054;2023-04-25T06:21:50;14.37;;;4.73;;
6109;SDS011;3085;49.444;11.054;2023-04-25T06:24:17;6.80;;;4.03;;
6109;SDS011;3085;49.444;11.054;2023-04-25T06:26:44;7.73;;;4.50;;
6109;SDS011;3085;49.444;11.054;2023-04-25T06:29:12;7.30;;;3.73;;
6109;SDS011;3085;49.444;11.054;2023-04-25T06:31:40;9.90;;;4.40;;
6109;SDS011;3085;49.444;11.054;2023-04-25T06:34:07;7.60;;;4.50;;
6109;SDS011;3085;49.444;11.054;2023-04-25T06:36:34;6.80;;;4.20;;
6109;SDS011;3085;49.444;11.054;2023-04-25T06:39:00;9.60;;;4.20;;
6109;SDS011;3085;49.444;11.054;2023-04-25T06:41:27;6.93;;;4.40;;
6109;SDS011;3085;49.444;11.054;2023-04-25T06:43:54;6.97;;;4.47;;
6109;SDS011;3085;49.444;11.054;2023-04-25T06:46:21;9.07;;;4.30;;
6109;SDS011;3085;49.444;11.054;2023-04-25T06:48:49;5.43;;;4.20;;
6109;SDS011;3085;49.444;11.054;2023-04-25T06:51:16;7.07;;;4.10;;
6109;SDS011;3085;49.444;11.054;2023-04-25T06:53:43;10.80;;;5.17;;
6109;SDS011;3085;49.444;11.054;2023-04-25T06:56:10;8.90;;;4.93;;
6109;SDS011;3085;49.444;11.054;2023-04-25T06:58:36;8.23;;;4.47;;
6109;SDS011;3085;49.444;11.054;2023-04-25T07:01:03;7.30;;;4.43;;
6109;SDS011;3085;49.444;11.054;2023-04-25T07:03:30;8.37;;;4.77;;
6109;SDS011;3085;49.444;11.054;2023-04-25T07:05:58;12.00;;;6.07;;
6109;SDS011;3085;49.444;11.054;2023-04-25T07:08:25;7.33;;;4.57;;
6109;SDS011;3085;49.444;11.054;2023-04-25T07:10:52;9.63;;;5.30;;
6109;SDS011;3085;49.444;11.054;2023-04-25T07:13:19;14.10;;;5.57;;
6109;SDS011;3085;49.444;11.054;2023-04-25T07:15:46;8.37;;;5.40;;
6109;SDS011;3085;49.444;11.054;2023-04-25T07:18:13;7.10;;;4.70;;
6109;SDS011;3085;49.444;11.054;2023-04-25T07:20:40;10.83;;;4.70;;
6109;SDS011;3085;49.444;11.054;2023-04-25T07:23:08;7.70;;;4.80;;
6109;SDS011;3085;49.444;11.054;2023-04-25T07:25:35;8.60;;;4.50;;
6109;SDS011;3085;49.444;11.054;2023-04-25T07:28:02;9.07;;;4.43;;
6109;SDS011;3085;49.444;11.054;2023-04-25T07:30:29;7.73;;;3.43;;
6109;SDS011;3085;49.444;11.054;2023-04-25T07:32:56;6.17;;;3.60;;
6109;SDS011;3085;49.444;11.054;2023-04-25T07:35:23;7.40;;;3.70;;
6109;SDS011;3085;49.444;11.054;2023-04-25T07:37:49;6.10;;;3.40;;
6109;SDS011;3085;49.444;11.054;2023-04-25T07:40:18;5.93;;;3.13;;
6109;SDS011;3085;49.444;11.054;2023-04-25T07:42:45;8.87;;;4.30;;
6109;SDS011;3085;49.444;11.054;2023-04-25T07:45:11;7.73;;;3.77;;
6109;SDS011;3085;49.444;11.054;2023-04-25T07:47:38;5.10;;;3.30;;
6109;SDS011;3085;49.444;11.054;2023-04-25T07:50:05;8.90;;;3.43;;
6109;SDS011;3085;49.444;11.054;2023-04-25T07:52:33;6.53;;;3.33;;
6109;SDS011;3085;49.444;11.054;2023-04-25T07:55:00;4.67;;;4.13;;
6109;SDS011;3085;49.444;11.054;2023-04-25T07:57:28;6.63;;;4.00;;
6109;SDS011;3085;49.444;11.054;2023-04-25T07:59:55;4.90;;;3.57;;
6109;SDS011;3085;49.444;11.054;2023-04-25T08:02:22;5.53;;;3.60;;
6109;SDS011;3085;49.444;11.054;2023-04-25T08:04:51;3.97;;;3.23;;
6109;SDS011;3085;49.444;11.054;2023-04-25T08:07:17;2.90;;;2.57;;
6109;SDS011;3085;49.444;11.054;2023-04-25T08:09:44;5.00;;;2.90;;
6109;SDS011;3085;49.444;11.054;2023-04-25T08:12:11;3.90;;;3.17;;
6109;SDS011;3085;49.444;11.054;2023-04-25T08:14:39;8.23;;;3.30;;
6109;SDS011;3085;49.444;11.054;2023-04-25T08:17:06;4.03;;;2.73;;
6109;SDS011;3085;49.444;11.054;2023-04-25T08:19:33;5.93;;;3.17;;
6109;SDS011;3085;49.444;11.054;2023-04-25T08:22:00;5.10;;;2.90;;
6109;SDS011;3085;49.444;11.054;2023-04-25T08:24:27;4.57;;;2.80;;
6109;SDS011;3085;49.444;11.054;2023-04-25T08:26:54;5.70;;;2.55;;
6109;SDS011;3085;49.444;11.054;2023-04-25T08:29:20;5.73;;;2.50;;
6109;SDS011;3085;49.444;11.054;2023-04-25T08:31:50;2.60;;;2.20;;
6109;SDS011;3085;49.444;11.054;2023-04-25T08:34:17;3.43;;;2.53;;
6109;SDS011;3085;49.444;11.054;2023-04-25T08:36:45;6.60;;;2.93;;
6109;SDS011;3085;49.444;11.054;2023-04-25T08:39:11;3.73;;;2.83;;
6109;SDS011;3085;49.444;11.054;2023-04-25T08:41:39;6.33;;;2.93;;
6109;SDS011;3085;49.444;11.054;2023-04-25T08:44:07;9.03;;;3.97;;
6109;SDS011;3085;49.444;11.054;2023-04-25T08:46:38;13.53;;;3.00;;
6109;SDS011;3085;49.444;11.054;2023-04-25T08:49:07;4.20;;;3.07;;
6109;SDS011;3085;49.444;11.054;2023-04-25T08:51:36;5.60;;;3.00;;
6109;SDS011;3085;49.444;11.054;2023-04-25T08:54:11;6.20;;;3.37;;
6109;SDS011;3085;49.444;11.054;2023-04-25T08:56:38;14.37;;;4.30;;
6109;SDS011;3085;49.444;11.054;2023-04-25T08:59:09;4.67;;;3.13;;
6109;SDS011;3085;49.444;11.054;2023-04-25T09:01:37;5.20;;;3.57;;
6109;SDS011;3085;49.444;11.054;2023-04-25T09:04:04;7.00;;;3.90;;
6109;SDS011;3085;49.444;11.054;2023-04-25T09:06:33;7.50;;;3.40;;
6109;SDS011;3085;49.444;11.054;2023-04-25T09:09:01;9.13;;;3.63;;
6109;SDS011;3085;49.444;11.054;2023-04-25T09:11:30;5.63;;;3.30;;
6109;SDS011;3085;49.444;11.054;2023-04-25T09:14:09;5.63;;;3.70;;
6109;SDS011;3085;49.444;11.054;2023-04-25T09:16:47;5.50;;;3.40;;
6109;SDS011;3085;49.444;11.054;2023-04-25T09:19:26;6.93;;;4.63;;
6109;SDS011;3085;49.444;11.054;2023-04-25T09:21:54;6.10;;;4.33;;
6109;SDS011;3085;49.444;11.054;2023-04-25T09:24:35;13.90;;;5.50;;
6109;SDS011;3085;49.444;11.054;2023-04-25T09:27:04;7.07;;;4.50;;
6109;SDS011;3085;49.444;11.054;2023-04-25T09:29:32;8.33;;;4.60;;
6109;SDS011;3085;49.444;11.054;2023-04-25T09:32:14;9.40;;;4.70;;
6109;SDS011;3085;49.444;11.054;2023-04-25T09:34:44;8.40;;;4.10;;
6109;SDS011;3085;49.444;11.054;2023-04-25T09:37:16;7.77;;;3.90;;
6109;SDS011;3085;49.444;11.054;2023-04-25T09:39:45;13.97;;;4.33;;
6109;SDS011;3085;49.444;11.054;2023-04-25T09:42:13;5.83;;;3.73;;
6109;SDS011;3085;49.444;11.054;2023-04-25T09:44:42;8.43;;;3.70;;
6109;SDS011;3085;49.444;11.054;2023-04-25T09:47:10;8.07;;;3.77;;
6109;SDS011;3085;49.444;11.054;2023-04-25T09:49:39;8.03;;;3.47;;
6109;SDS011;3085;49.444;11.054;2023-04-25T09:52:08;10.30;;;4.23;;
6109;SDS011;3085;49.444;11.054;2023-04-25T09:54:40;6.13;;;3.40;;
6109;SDS011;3085;49.444;11.054;2023-04-25T09:57:10;7.30;;;4.30;;
6109;SDS011;3085;49.444;11.054;2023-04-25T09:59:39;8.60;;;3.80;;
6109;SDS011;3085;49.444;11.054;2023-04-25T10:02:09;6.17;;;4.00;;
6109;SDS011;3085;49.444;11.054;2023-04-25T10:04:38;8.30;;;3.70;;
6109;SDS011;3085;49.444;11.054;2023-04-25T10:07:06;5.83;;;3.77;;
6109;SDS011;3085;49.444;11.054;2023-04-25T10:09:36;7.80;;;4.27;;
6109;SDS011;3085;49.444;11.054;2023-04-25T10:12:05;5.00;;;4.20;;
6109;SDS011;3085;49.444;11.054;2023-04-25T10:14:33;8.80;;;4.20;;
6109;SDS011;3085;49.444;11.054;2023-04-25T10:17:01;6.00;;;4.00;;
6109;SDS011;3085;49.444;11.054;2023-04-25T10:19:28;8.63;;;5.30;;
6109;SDS011;3085;49.444;11.054;2023-04-25T10:21:58;6.33;;;3.80;;
6109;SDS011;3085;49.444;11.054;2023-04-25T10:24:33;6.83;;;3.43;;
6109;SDS011;3085;49.444;11.054;2023-04-25T10:27:01;62.00;;;15.20;;
6109;SDS011;3085;49.444;11.054;2023-04-25T10:29:29;6.80;;;3.97;;
6109;SDS011;3085;49.444;11.054;2023-04-25T10:31:55;11.93;;;4.70;;
6109;SDS011;3085;49.444;11.054;2023-04-25T10:34:24;7.73;;;3.03;;
6109;SDS011;3085;49.444;11.054;2023-04-25T10:37:03;7.57;;;3.73;;
6109;SDS011;3085;49.444;11.054;2023-04-25T10:39:33;5.00;;;2.63;;
6109;SDS011;3085;49.444;11.054;2023-04-25T10:42:01;7.40;;;3.27;;
6109;SDS011;3085;49.444;11.054;2023-04-25T10:44:29;4.73;;;3.33;;
6109;SDS011;3085;49.444;11.054;2023-04-25T10:46:57;6.37;;;2.13;;
6109;SDS011;3085;49.444;11.054;2023-04-25T10:49:31;4.40;;;2.90;;
6109;SDS011;3085;49.444;11.054;2023-04-25T10:52:11;8.90;;;3.37;;
6109;SDS011;3085;49.444;11.054;2023-04-25T10:54:52;4.10;;;2.63;;
6109;SDS011;3085;49.444;11.054;2023-04-25T10:57:27;7.50;;;2.30;;
6109;SDS011;3085;49.444;11.054;2023-04-25T10:59:59;4.67;;;2.10;;
6109;SDS011;3085;49.444;11.054;2023-04-25T11:02:30;4.30;;;1.80;;
6109;SDS011;3085;49.444;11.054;2023-04-25T11:04:57;3.83;;;2.30;;
6109;SDS011;3085;49.444;11.054;2023-04-25T11:07:26;2.60;;;2.17;;
6109;SDS011;3085;49.444;11.054;2023-04-25T11:10:02;2.10;;;1.90;;
6109;SDS011;3085;49.444;11.054;2023-04-25T11:12:30;3.00;;;2.07;;
6109;SDS011;3085;49.444;11.054;2023-04-25T11:14:58;5.20;;;2.50;;
6109;SDS011;3085;49.444;11.054;2023-04-25T11:17:28;2.73;;;1.87;;
6109;SDS011;3085;49.444;11.054;2023-04-25T11:19:56;1.90;;;1.47;;
6109;SDS011;3085;49.444;11.054;2023-04-25T11:22:23;2.30;;;2.10;;
6109;SDS011;3085;49.444;11.054;2023-04-25T11:24:50;3.17;;;1.83;;
6109;SDS011;3085;49.444;11.054;2023-04-25T11:27:18;8.33;;;2.30;;
6109;SDS011;3085;49.444;11.054;2023-04-25T11:29:45;2.67;;;2.43;;
6109;SDS011;3085;49.444;11.054;2023-04-25T11:32:14;4.70;;;2.47;;
6109;SDS011;3085;49.444;11.054;2023-04-25T11:34:42;4.53;;;1.70;;
6109;SDS011;3085;49.444;11.054;2023-04-25T11:37:10;3.93;;;1.97;;
6109;SDS011;3085;49.444;11.054;2023-04-25T11:39:39;1.53;;;1.40;;
6109;SDS011;3085;49.444;11.054;2023-04-25T11:42:11;5.43;;;2.80;;
6109;SDS011;3085;49.444;11.054;2023-04-25T11:44:39;10.07;;;1.80;;
6109;SDS011;3085;49.444;11.054;2023-04-25T11:47:06;3.37;;;2.17;;
6109;SDS011;3085;49.444;11.054;2023-04-25T11:49:33;2.50;;;2.13;;
6109;SDS011;3085;49.444;11.054;2023-04-25T11:52:02;3.40;;;1.90;;
6109;SDS011;3085;49.444;11.054;2023-04-25T11:54:28;2.67;;;1.70;;
6109;SDS011;3085;49.444;11.054;2023-04-25T11:56:55;1.80;;;1.60;;
6109;SDS011;3085;49.444;11.054;2023-04-25T11:59:23;2.10;;;1.90;;
6109;SDS011;3085;49.444;11.054;2023-04-25T12:01:53;2.43;;;1.87;;
6109;SDS011;3085;49.444;11.054;2023-04-25T12:04:21;1.90;;;1.60;;
6109;SDS011;3085;49.444;11.054;2023-04-25T12:06:49;2.47;;;1.80;;
6109;SDS011;3085;49.444;11.054;2023-04-25T12:09:18;3.00;;;1.80;;
6109;SDS011;3085;49.444;11.054;2023-04-25T12:11:47;2.13;;;1.67;;
6109;SDS011;3085;49.444;11.054;2023-04-25T12:14:21;2.23;;;1.40;;
6109;SDS011;3085;49.444;11.054;2023-04-25T12:16:50;5.60;;;2.60;;
6109;SDS011;3085;49.444;11.054;2023-04-25T12:19:19;2.07;;;1.87;;
6109;SDS011;3085;49.444;11.054;2023-04-25T12:21:47;3.07;;;1.90;;
6109;SDS011;3085;49.444;11.054;2023-04-25T12:24:15;2.30;;;1.57;;
6109;SDS011;3085;49.444;11.054;2023-04-25T12:26:50;4.90;;;2.90;;
6109;SDS011;3085;49.444;11.054;2023-04-25T12:29:19;2.47;;;1.80;;
6109;SDS011;3085;49.444;11.054;2023-04-25T12:31:47;2.30;;;2.00;;
6109;SDS011;3085;49.444;11.054;2023-04-25T12:34:14;2.10;;;1.80;;
6109;SDS011;3085;49.444;11.054;2023-04-25T12:36:42;2.73;;;1.70;;
6109;SDS011;3085;49.444;11.054;2023-04-25T12:39:14;2.23;;;1.57;;
6109;SDS011;3085;49.444;11.054;2023-04-25T12:41:41;2.87;;;1.60;;
6109;SDS011;3085;49.444;11.054;2023-04-25T12:44:09;1.67;;;1.50;;
6109;SDS011;3085;49.444;11.054;2023-04-25T12:46:36;2.13;;;1.93;;
6109;SDS011;3085;49.444;11.054;2023-04-25T12:49:03;3.63;;;1.90;;
6109;SDS011;3085;49.444;11.054;2023-04-25T12:51:32;2.63;;;1.67;;
6109;SDS011;3085;49.444;11.054;2023-04-25T12:54:01;3.00;;;1.83;;
6109;SDS011;3085;49.444;11.054;2023-04-25T12:56:29;5.73;;;1.87;;
6109;SDS011;3085;49.444;11.054;2023-04-25T12:58:57;2.87;;;2.07;;
6109;SDS011;3085;49.444;11.054;2023-04-25T13:01:24;2.47;;;1.83;;
6109;SDS011;3085;49.444;11.054;2023-04-25T13:03:51;2.27;;;1.80;;
6109;SDS011;3085;49.444;11.054;2023-04-25T13:06:19;2.17;;;1.87;;
6109;SDS011;3085;49.444;11.054;2023-04-25T13:08:46;3.63;;;2.13;;
6109;SDS011;3085;49.444;11.054;2023-04-25T13:11:15;3.00;;;1.83;;
6109;SDS011;3085;49.444;11.054;2023-04-25T13:13:41;2.00;;;1.80;;
6109;SDS011;3085;49.444;11.054;2023-04-25T13:16:09;2.30;;;1.67;;
6109;SDS011;3085;49.444;11.054;2023-04-25T13:18:38;2.40;;;1.90;;
6109;SDS011;3085;49.444;11.054;2023-04-25T13:21:06;2.73;;;2.10;;
6109;SDS011;3085;49.444;11.054;2023-04-25T13:23:32;2.93;;;2.00;;
6109;SDS011;3085;49.444;11.054;2023-04-25T13:25:59;3.20;;;1.90;;
6109;SDS011;3085;49.444;11.054;2023-04-25T13:28:28;6.47;;;2.70;;
6109;SDS011;3085;49.444;11.054;2023-04-25T13:30:55;2.17;;;1.67;;
6109;SDS011;3085;49.444;11.054;2023-04-25T13:33:24;2.10;;;1.70;;
6109;SDS011;3085;49.444;11.054;2023-04-25T13:35:51;2.07;;;1.77;;
6109;SDS011;3085;49.444;11.054;2023-04-25T13:38:21;2.17;;;1.80;;
6109;SDS011;3085;49.444;11.054;2023-04-25T13:40:48;13.20;;;2.90;;
6109;SDS011;3085;49.444;11.054;2023-04-25T13:43:18;6.50;;;3.00;;
6109;SDS011;3085;49.444;11.054;2023-04-25T13:45:48;3.80;;;2.20;;
6109;SDS011;3085;49.444;11.054;2023-04-25T13:48:15;2.63;;;1.80;;
6109;SDS011;3085;49.444;11.054;2023-04-25T13:50:42;12.93;;;3.07;;
6109;SDS011;3085;49.444;11.054;2023-04-25T13:53:10;4.83;;;2.50;;
6109;SDS011;3085;49.444;11.054;2023-04-25T13:55:37;3.33;;;2.07;;
6109;SDS011;3085;49.444;11.054;2023-04-25T13:58:03;2.50;;;2.03;;
6109;SDS011;3085;49.444;11.054;2023-04-25T14:00:33;2.97;;;2.23;;
6109;SDS011;3085;49.444;11.054;2023-04-25T14:03:02;3.37;;;2.03;;
6109;SDS011;3085;49.444;11.054;2023-04-25T14:05:32;2.53;;;2.13;;
6109;SDS011;3085;49.444;11.054;2023-04-25T14:08:03;2.87;;;2.00;;
6109;SDS011;3085;49.444;11.054;2023-04-25T14:10:30;5.33;;;3.40;;
6109;SDS011;3085;49.444;11.054;2023-04-25T14:12:57;14.27;;;3.17;;
6109;SDS011;3085;49.444;11.054;2023-04-25T14:15:25;1.93;;;1.73;;
6109;SDS011;3085;49.444;11.054;2023-04-25T14:17:52;8.43;;;3.07;;
6109;SDS011;3085;49.444;11.054;2023-04-25T14:20:20;4.60;;;2.53;;
6109;SDS011;3085;49.444;11.054;2023-04-25T14:22:48;12.33;;;2.87;;
6109;SDS011;3085;49.444;11.054;2023-04-25T14:25:15;3.93;;;2.57;;
6109;SDS011;3085;49.444;11.054;2023-04-25T14:27:42;3.50;;;2.40;;
6109;SDS011;3085;49.444;11.054;2023-04-25T14:30:12;3.90;;;2.30;;
6109;SDS011;3085;49.444;11.054;2023-04-25T14:32:39;3.33;;;2.50;;
6109;SDS011;3085;49.444;11.054;2023-04-25T14:35:06;3.80;;;2.70;;
6109;SDS011;3085;49.444;11.054;2023-04-25T14:37:35;3.40;;;2.27;;
6109;SDS011;3085;49.444;11.054;2023-04-25T14:40:02;3.20;;;2.27;;
6109;SDS011;3085;49.444;11.054;2023-04-25T14:42:30;4.97;;;2.80;;
6109;SDS011;3085;49.444;11.054;2023-04-25T14:44:58;6.43;;;2.57;;
6109;SDS011;3085;49.444;11.054;2023-04-25T14:47:24;2.87;;;2.07;;
6109;SDS011;3085;49.444;11.054;2023-04-25T14:49:51;4.20;;;2.57;;
6109;SDS011;3085;49.444;11.054;2023-04-25T14:52:19;5.73;;;3.10;;
6109;SDS011;3085;49.444;11.054;2023-04-25T14:54:50;6.10;;;2.53;;
6109;SDS011;3085;49.444;11.054;2023-04-25T14:57:17;3.27;;;2.20;;
6109;SDS011;3085;49.444;11.054;2023-04-25T14:59:44;4.90;;;2.57;;
6109;SDS011;3085;49.444;11.054;2023-04-25T15:02:11;5.47;;;2.77;;
6109;SDS011;3085;49.444;11.054;2023-04-25T15:04:38;3.93;;;2.43;;